createdAt,value
2018-09-06T00:00:50.675Z,8.13
2018-09-06T00:03:19.000Z,8.30
2018-09-06T00:05:47.486Z,8.20
2018-09-06T00:08:15.840Z,8.08
2018-09-06T00:10:44.251Z,8.00
2018-09-06T00:13:12.536Z,8.75
2018-09-06T00:15:40.869Z,8.80
2018-09-06T00:18:09.199Z,8.58
2018-09-06T00:20:37.607Z,8.38
2018-09-06T00:23:06.425Z,8.20
2018-09-06T00:25:35.153Z,8.57
2018-09-06T00:28:03.711Z,8.30
2018-09-06T00:30:32.037Z,8.15
2018-09-06T00:33:00.381Z,7.80
2018-09-06T00:35:28.672Z,8.38
2018-09-06T00:37:57.049Z,8.48
2018-09-06T00:40:25.429Z,7.90
2018-09-06T00:42:53.869Z,8.10
2018-09-06T00:45:22.241Z,8.53
2018-09-06T00:47:50.577Z,8.90
2018-09-06T00:50:20.946Z,8.90
2018-09-06T00:52:51.399Z,8.60
2018-09-06T00:55:20.276Z,8.90
2018-09-06T00:57:48.605Z,8.60
2018-09-06T01:00:16.985Z,8.70
2018-09-06T01:02:45.505Z,8.65
2018-09-06T01:05:14.043Z,8.70
2018-09-06T01:07:42.335Z,8.33
2018-09-06T01:10:10.651Z,8.40
2018-09-06T01:12:38.988Z,8.55
2018-09-06T01:15:07.333Z,8.63
2018-09-06T01:17:35.743Z,8.38
2018-09-06T01:20:04.168Z,8.90
2018-09-06T01:22:32.576Z,9.40
2018-09-06T01:25:00.897Z,9.23
2018-09-06T01:27:29.197Z,9.68
2018-09-06T01:30:04.204Z,10.00
2018-09-06T01:32:32.726Z,9.20
2018-09-06T01:35:01.022Z,9.50
2018-09-06T01:37:29.326Z,9.20
2018-09-06T01:39:57.603Z,9.33
2018-09-06T01:42:25.917Z,9.85
2018-09-06T01:44:54.242Z,9.90
2018-09-06T01:47:22.530Z,10.38
2018-09-06T01:49:50.853Z,10.03
2018-09-06T01:52:19.191Z,10.68
2018-09-06T01:54:47.580Z,10.72
2018-09-06T01:57:15.902Z,11.30
2018-09-06T01:59:44.430Z,10.45
2018-09-06T02:02:12.739Z,10.40
2018-09-06T02:04:41.041Z,10.38
2018-09-06T02:07:09.389Z,10.78
2018-09-06T02:09:37.709Z,10.65
2018-09-06T02:12:06.029Z,10.68
2018-09-06T02:14:34.647Z,10.63
2018-09-06T02:17:02.978Z,10.70
2018-09-06T02:19:31.318Z,10.98
2018-09-06T02:21:59.745Z,10.25
2018-09-06T02:24:28.129Z,10.45
2018-09-06T02:26:56.407Z,10.63
2018-09-06T02:29:24.745Z,11.03
2018-09-06T02:31:53.031Z,10.48
2018-09-06T02:34:21.333Z,11.18
2018-09-06T02:36:49.629Z,11.35
2018-09-06T02:39:17.952Z,10.65
2018-09-06T02:41:46.264Z,10.53
2018-09-06T02:44:14.572Z,10.68
2018-09-06T02:46:42.890Z,12.23
2018-09-06T02:49:11.285Z,11.08
2018-09-06T02:51:39.660Z,11.20
2018-09-06T02:54:07.987Z,11.55
2018-09-06T02:56:36.338Z,11.90
2018-09-06T02:59:04.771Z,11.40
2018-09-06T03:01:33.101Z,11.20
2018-09-06T03:04:01.402Z,11.97
2018-09-06T03:06:29.730Z,11.77
2018-09-06T03:08:58.092Z,11.48
2018-09-06T03:11:31.619Z,11.50
2018-09-06T03:13:59.884Z,11.60
2018-09-06T03:16:28.298Z,10.88
2018-09-06T03:18:56.611Z,11.20
2018-09-06T03:21:24.890Z,11.33
2018-09-06T03:23:53.192Z,10.63
2018-09-06T03:26:21.517Z,11.75
2018-09-06T03:28:50.844Z,11.83
2018-09-06T03:31:19.176Z,11.75
2018-09-06T03:33:47.784Z,11.90
2018-09-06T03:36:16.362Z,12.25
2018-09-06T03:38:45.281Z,12.10
2018-09-06T03:41:13.595Z,12.50
2018-09-06T03:43:41.946Z,12.40
2018-09-06T03:46:10.391Z,12.20
2018-09-06T03:48:38.851Z,12.30
2018-09-06T03:51:07.443Z,12.97
2018-09-06T03:53:36.161Z,12.90
2018-09-06T03:56:04.530Z,13.45
2018-09-06T03:58:32.944Z,13.60
2018-09-06T04:01:01.359Z,13.80
2018-09-06T04:03:29.631Z,14.63
2018-09-06T04:05:57.969Z,14.40
2018-09-06T04:08:26.287Z,13.27
2018-09-06T04:10:54.976Z,13.80
2018-09-06T04:13:23.237Z,14.58
2018-09-06T04:15:51.561Z,13.40
2018-09-06T04:18:19.884Z,13.15
2018-09-06T04:20:48.260Z,12.90
2018-09-06T04:23:16.582Z,13.00
2018-09-06T04:25:44.888Z,13.40
2018-09-06T04:28:13.259Z,12.23
2018-09-06T04:30:41.571Z,12.95
2018-09-06T04:33:09.876Z,13.00
2018-09-06T04:35:38.196Z,12.78
2018-09-06T04:38:06.537Z,13.67
2018-09-06T04:40:34.830Z,13.10
2018-09-06T04:43:03.135Z,13.47
2018-09-06T04:45:31.483Z,12.30
2018-09-06T04:47:59.756Z,13.07
2018-09-06T04:50:28.049Z,12.90
2018-09-06T04:52:56.363Z,13.33
2018-09-06T04:55:24.773Z,13.40
2018-09-06T04:57:53.195Z,12.95
2018-09-06T05:00:21.475Z,13.28
2018-09-06T05:02:49.783Z,14.03
2018-09-06T05:05:18.097Z,13.28
2018-09-06T05:07:46.501Z,13.00
2018-09-06T05:10:14.814Z,12.90
2018-09-06T05:12:43.135Z,13.00
2018-09-06T05:15:11.485Z,12.68
2018-09-06T05:17:39.912Z,12.37
2018-09-06T05:20:08.224Z,12.73
2018-09-06T05:22:36.521Z,13.00
2018-09-06T05:25:04.892Z,13.40
2018-09-06T05:27:33.200Z,13.50
2018-09-06T05:30:01.540Z,13.43
2018-09-06T05:32:30.165Z,14.50
2018-09-06T05:34:58.497Z,14.47
2018-09-06T05:37:26.833Z,13.40
2018-09-06T05:39:55.177Z,13.25
2018-09-06T05:42:23.470Z,13.48
2018-09-06T05:44:51.769Z,13.65
2018-09-06T05:47:20.209Z,13.30
2018-09-06T05:49:48.433Z,13.47
2018-09-06T05:52:16.833Z,13.45
2018-09-06T05:54:45.226Z,13.60
2018-09-06T05:57:13.662Z,14.93
2018-09-06T05:59:42.025Z,13.53
2018-09-06T06:02:10.256Z,14.60
2018-09-06T06:04:38.588Z,15.50
2018-09-06T06:07:07.053Z,17.00
2018-09-06T06:09:35.396Z,16.77
2018-09-06T06:12:03.719Z,15.98
2018-09-06T06:14:32.108Z,15.90
2018-09-06T06:17:00.476Z,16.75
2018-09-06T06:19:28.794Z,16.85
2018-09-06T06:21:57.136Z,15.83
2018-09-06T06:24:25.446Z,20.17
2018-09-06T06:26:53.723Z,16.20
2018-09-06T06:29:21.989Z,16.50
2018-09-06T06:31:50.304Z,18.42
2018-09-06T06:34:18.621Z,18.60
2018-09-06T06:36:46.958Z,19.10
2018-09-06T06:39:15.379Z,18.70
2018-09-06T06:41:43.684Z,17.42
2018-09-06T06:44:12.039Z,17.80
2018-09-06T06:46:40.310Z,17.85
2018-09-06T06:49:08.709Z,17.37
2018-09-06T06:51:37.033Z,19.87
2018-09-06T06:54:05.435Z,18.25
2018-09-06T06:56:33.745Z,18.98
2018-09-06T06:59:02.043Z,19.27
2018-09-06T07:01:30.446Z,19.98
2018-09-06T07:03:58.775Z,20.35
2018-09-06T07:06:27.112Z,19.45
2018-09-06T07:08:55.494Z,19.95
2018-09-06T07:11:23.810Z,20.45
2018-09-06T07:13:52.104Z,20.30
2018-09-06T07:16:20.617Z,20.75
2018-09-06T07:18:48.993Z,19.50
2018-09-06T07:21:17.415Z,19.15
2018-09-06T07:23:45.745Z,18.62
2018-09-06T07:26:14.077Z,18.70
2018-09-06T07:28:42.386Z,18.82
2018-09-06T07:31:10.784Z,17.32
2018-09-06T07:33:39.166Z,18.40
2018-09-06T07:36:07.525Z,18.52
2018-09-06T07:38:35.851Z,17.70
2018-09-06T07:41:04.189Z,18.37
2018-09-06T07:43:32.503Z,17.40
2018-09-06T07:46:00.817Z,16.73
2018-09-06T07:48:29.140Z,18.60
2018-09-06T07:50:57.500Z,19.42
2018-09-06T07:53:25.915Z,18.30
2018-09-06T07:55:54.227Z,18.95
2018-09-06T07:58:22.529Z,19.17
2018-09-06T08:00:51.001Z,17.90
2018-09-06T08:03:19.431Z,18.80
2018-09-06T08:05:47.753Z,17.92
2018-09-06T08:08:16.117Z,20.43
2018-09-06T08:10:44.445Z,20.55
2018-09-06T08:13:12.744Z,20.08
2018-09-06T08:15:41.045Z,21.20
2018-09-06T08:18:09.358Z,19.60
2018-09-06T08:20:37.719Z,21.83
2018-09-06T08:23:06.043Z,21.77
2018-09-06T08:25:34.405Z,21.07
2018-09-06T08:28:02.699Z,21.05
2018-09-06T08:30:31.117Z,21.33
2018-09-06T08:32:59.425Z,22.37
2018-09-06T08:35:27.740Z,21.75
2018-09-06T08:37:56.114Z,20.57
2018-09-06T08:40:24.413Z,21.70
2018-09-06T08:42:52.815Z,21.33
2018-09-06T08:45:21.218Z,21.73
2018-09-06T08:47:49.514Z,22.35
2018-09-06T08:50:17.849Z,22.37
2018-09-06T08:52:46.196Z,21.73
2018-09-06T08:55:14.602Z,21.97
2018-09-06T08:57:42.915Z,23.42
2018-09-06T09:00:11.304Z,23.73
2018-09-06T09:02:40.129Z,24.82
2018-09-06T09:05:08.385Z,24.02
2018-09-06T09:07:36.724Z,25.40
2018-09-06T09:10:05.720Z,25.10
2018-09-06T09:12:34.124Z,25.50
2018-09-06T09:15:02.424Z,26.00
2018-09-06T09:17:31.168Z,26.90
2018-09-06T09:19:59.481Z,25.43
2018-09-06T09:22:27.972Z,26.27
2018-09-06T09:24:56.177Z,27.37
2018-09-06T09:27:24.478Z,26.97
2018-09-06T09:29:52.833Z,27.73
2018-09-06T09:32:21.119Z,28.30
2018-09-06T09:34:49.423Z,28.67
2018-09-06T09:37:17.792Z,26.83
2018-09-06T09:39:46.179Z,26.87
2018-09-06T09:42:14.497Z,27.87
2018-09-06T09:44:42.854Z,27.70
2018-09-06T09:49:38.652Z,28.63
2018-09-06T09:52:07.096Z,28.93
2018-09-06T09:54:35.366Z,28.30
2018-09-06T09:57:03.785Z,28.87
2018-09-06T09:59:32.075Z,29.80
2018-09-06T10:02:05.884Z,30.13
2018-09-06T10:04:39.260Z,29.52
2018-09-06T10:07:12.983Z,30.10
2018-09-06T10:09:41.283Z,29.80
2018-09-06T10:12:09.637Z,31.07
2018-09-06T10:14:37.914Z,32.10
2018-09-06T10:17:06.261Z,31.20
2018-09-06T10:19:34.582Z,30.80
2018-09-06T10:22:02.939Z,30.50
2018-09-06T10:24:31.217Z,30.20
2018-09-06T10:26:59.551Z,31.30
2018-09-06T10:29:27.955Z,29.87
2018-09-06T10:31:56.285Z,28.80
2018-09-06T10:34:24.617Z,29.10
2018-09-06T10:36:53.016Z,30.10
2018-09-06T10:39:21.397Z,27.87
2018-09-06T10:41:49.680Z,24.30
2018-09-06T10:44:17.997Z,24.80
2018-09-06T10:46:46.321Z,26.00
2018-09-06T10:49:14.627Z,25.97
2018-09-06T10:51:42.997Z,24.50
2018-09-06T10:54:11.459Z,24.07
2018-09-06T10:56:39.794Z,24.63
2018-09-06T10:59:08.096Z,23.90
2018-09-06T11:01:36.460Z,22.90
2018-09-06T11:04:04.889Z,23.43
2018-09-06T11:06:33.195Z,23.85
2018-09-06T11:09:01.547Z,23.30
2018-09-06T11:11:30.104Z,23.87
2018-09-06T11:14:04.717Z,25.20
2018-09-06T11:16:33.027Z,24.60
2018-09-06T11:19:01.353Z,23.80
2018-09-06T11:21:29.795Z,26.65
2018-09-06T11:23:58.164Z,24.30
2018-09-06T11:26:26.476Z,27.10
2018-09-06T11:28:54.762Z,26.95
2018-09-06T11:31:23.053Z,29.32
2018-09-06T11:33:51.536Z,28.80
2018-09-06T11:36:19.815Z,28.83
2018-09-06T11:38:48.160Z,29.90
2018-09-06T11:41:16.465Z,31.10
2018-09-06T11:43:44.745Z,30.27
2018-09-06T11:46:13.069Z,31.17
2018-09-06T11:48:41.371Z,31.33
2018-09-06T11:51:09.901Z,30.70
2018-09-06T11:53:38.176Z,31.03
2018-09-06T11:56:07.064Z,31.40
2018-09-06T11:58:35.395Z,32.65
2018-09-06T12:01:03.898Z,32.70
2018-09-06T12:03:32.291Z,33.23
2018-09-06T12:06:00.631Z,31.45
2018-09-06T12:08:28.897Z,31.80
2018-09-06T12:10:57.219Z,33.23
2018-09-06T12:13:25.528Z,32.93
2018-09-06T12:15:53.852Z,32.63
2018-09-06T12:18:22.204Z,32.00
2018-09-06T12:20:50.530Z,34.00
2018-09-06T12:23:18.879Z,31.65
2018-09-06T12:25:47.488Z,31.87
2018-09-06T12:28:15.840Z,32.53
2018-09-06T12:30:44.114Z,33.50
2018-09-06T12:33:12.416Z,32.10
2018-09-06T12:35:40.735Z,32.53
2018-09-06T12:38:09.021Z,33.10
2018-09-06T12:40:37.391Z,33.43
2018-09-06T12:43:05.753Z,32.77
2018-09-06T12:45:34.046Z,30.47
2018-09-06T12:48:02.451Z,30.40
2018-09-06T12:50:30.797Z,29.33
2018-09-06T12:52:59.090Z,26.50
2018-09-06T12:55:27.731Z,27.90
2018-09-06T12:57:56.020Z,28.38
2018-09-06T13:00:24.348Z,30.10
2018-09-06T13:02:52.713Z,30.52
2018-09-06T13:05:20.997Z,29.77
2018-09-06T13:07:49.334Z,30.27
2018-09-06T13:10:17.726Z,30.33
2018-09-06T13:12:46.172Z,31.70
2018-09-06T13:15:14.536Z,28.70
2018-09-06T13:17:42.821Z,31.23
2018-09-06T13:20:11.148Z,29.30
2018-09-06T13:22:39.448Z,26.50
2018-09-06T13:25:07.919Z,27.10
2018-09-06T13:27:36.227Z,27.27
2018-09-06T13:30:04.625Z,26.40
2018-09-06T13:32:32.971Z,23.20
2018-09-06T13:35:01.296Z,23.70
2018-09-06T13:37:29.647Z,24.00
2018-09-06T13:39:57.969Z,24.10
2018-09-06T13:42:26.266Z,25.17
2018-09-06T13:44:54.603Z,27.07
2018-09-06T13:47:22.957Z,26.80
2018-09-06T13:49:51.255Z,28.25
2018-09-06T13:52:19.629Z,29.82
2018-09-06T13:54:47.896Z,28.73
2018-09-06T13:57:16.211Z,29.27
2018-09-06T13:59:44.540Z,30.25
2018-09-06T14:02:12.878Z,29.67
2018-09-06T14:04:41.239Z,29.57
2018-09-06T14:07:09.567Z,29.57
2018-09-06T14:09:37.955Z,27.95
2018-09-06T14:12:06.993Z,28.32
2018-09-06T14:14:35.286Z,28.87
2018-09-06T14:17:03.725Z,28.00
2018-09-06T14:19:32.047Z,28.67
2018-09-06T14:22:00.717Z,27.80
2018-09-06T14:24:29.198Z,28.40
2018-09-06T14:26:57.808Z,29.67
2018-09-06T14:29:26.179Z,30.30
2018-09-06T14:31:54.492Z,30.80
2018-09-06T14:34:22.965Z,33.18
2018-09-06T14:36:51.314Z,33.67
2018-09-06T14:39:19.665Z,35.23
2018-09-06T14:41:47.962Z,35.98
2018-09-06T14:44:16.259Z,35.08
2018-09-06T14:46:44.583Z,32.50
2018-09-06T14:49:12.862Z,28.70
2018-09-06T14:51:41.147Z,29.80
2018-09-06T14:54:09.471Z,30.75
2018-09-06T14:56:37.875Z,29.92
2018-09-06T14:59:06.236Z,29.45
2018-09-06T15:01:34.807Z,27.60
2018-09-06T15:04:03.080Z,29.70
2018-09-06T15:06:31.492Z,30.30
2018-09-06T15:08:59.803Z,30.40
2018-09-06T15:11:28.209Z,32.40
2018-09-06T15:13:56.525Z,33.40
2018-09-06T15:16:24.848Z,33.42
2018-09-06T15:18:53.154Z,35.45
2018-09-06T15:21:21.547Z,35.17
2018-09-06T15:23:49.859Z,37.80
2018-09-06T15:26:18.165Z,37.73
2018-09-06T15:28:46.560Z,37.30
2018-09-06T15:31:14.857Z,37.25
2018-09-06T15:33:43.228Z,35.63
2018-09-06T15:36:11.566Z,36.08
2018-09-06T15:38:39.911Z,38.63
2018-09-06T15:41:08.229Z,37.45
2018-09-06T15:43:36.541Z,39.67
2018-09-06T15:46:05.211Z,38.78
2018-09-06T15:48:33.527Z,37.80
2018-09-06T15:51:02.017Z,36.50
2018-09-06T15:53:33.612Z,36.45
2018-09-06T15:56:01.935Z,35.20
2018-09-06T15:58:30.236Z,34.78
2018-09-06T16:00:58.568Z,36.08
2018-09-06T16:03:26.886Z,35.40
2018-09-06T16:05:55.208Z,35.95
2018-09-06T16:08:23.939Z,38.90
2018-09-06T16:10:52.254Z,40.90
2018-09-06T16:13:20.808Z,44.00
2018-09-06T16:15:49.149Z,46.70
2018-09-06T16:18:17.464Z,47.03
2018-09-06T16:20:45.807Z,43.70
2018-09-06T16:23:14.148Z,45.00
2018-09-06T16:25:42.509Z,47.88
2018-09-06T16:28:11.382Z,47.58
2018-09-06T16:30:39.707Z,48.42
2018-09-06T16:33:08.046Z,48.15
2018-09-06T16:35:36.409Z,49.98
2018-09-06T16:38:04.683Z,52.50
2018-09-06T16:40:33.134Z,50.90
2018-09-06T16:43:01.461Z,51.10
2018-09-06T16:45:29.767Z,50.95
2018-09-06T16:47:58.100Z,51.80
2018-09-06T16:51:56.834Z,53.60
2018-09-06T16:54:25.178Z,53.98
2018-09-06T16:56:53.460Z,56.15
2018-09-06T16:59:21.792Z,55.17
2018-09-06T17:01:50.077Z,56.53
2018-09-06T17:04:18.418Z,53.10
2018-09-06T17:06:46.734Z,57.77
2018-09-06T17:09:15.064Z,61.00
2018-09-06T17:11:43.403Z,59.20
2018-09-06T17:14:11.768Z,59.95
2018-09-06T17:16:40.108Z,60.70
2018-09-06T17:19:08.468Z,61.25
2018-09-06T17:21:37.436Z,59.25
2018-09-06T17:24:05.755Z,58.68
2018-09-06T17:26:34.080Z,61.45
2018-09-06T17:29:02.408Z,59.85
2018-09-06T17:31:30.769Z,60.12
2018-09-06T17:33:59.154Z,61.10
2018-09-06T17:36:27.498Z,64.70
2018-09-06T17:38:55.877Z,64.58
2018-09-06T17:41:24.393Z,66.40
2018-09-06T17:43:52.711Z,64.87
2018-09-06T17:46:21.052Z,60.48
2018-09-06T17:48:49.494Z,36.95
2018-09-06T17:51:17.791Z,27.75
2018-09-06T17:53:46.101Z,18.92
2018-09-06T17:56:14.457Z,18.90
2018-09-06T17:58:42.790Z,20.50
2018-09-06T18:01:21.842Z,21.80
2018-09-06T18:03:50.192Z,21.82
2018-09-06T18:06:18.610Z,22.27
2018-09-06T18:08:46.930Z,22.70
2018-09-06T18:12:51.029Z,22.52
2018-09-06T18:15:19.352Z,25.20
2018-09-06T18:17:47.799Z,26.20
2018-09-06T18:20:16.025Z,27.22
2018-09-06T18:22:44.339Z,26.30
2018-09-06T18:25:12.668Z,26.95
2018-09-06T18:27:41.122Z,27.62
2018-09-06T18:30:09.419Z,28.50
2018-09-06T18:32:37.822Z,28.25
2018-09-06T18:35:06.168Z,28.00
2018-09-06T18:37:34.561Z,28.05
2018-09-06T18:40:02.926Z,28.80
2018-09-06T18:42:31.255Z,29.02
2018-09-06T18:44:59.627Z,30.97
2018-09-06T18:47:27.942Z,30.82
2018-09-06T18:49:56.251Z,30.62
2018-09-06T18:52:24.582Z,29.45
2018-09-06T18:54:53.215Z,30.82
2018-09-06T18:57:21.549Z,31.93
2018-09-06T18:59:49.820Z,31.40
2018-09-06T19:02:18.148Z,33.92
2018-09-06T19:04:46.475Z,33.33
2018-09-06T19:07:14.773Z,35.05
2018-09-06T19:09:44.047Z,33.70
2018-09-06T19:12:12.389Z,35.28
2018-09-06T19:14:40.764Z,35.40
2018-09-06T19:17:09.094Z,37.45
2018-09-06T19:19:37.397Z,40.73
2018-09-06T19:22:05.727Z,43.70
2018-09-06T19:24:34.034Z,42.48
2018-09-06T19:27:02.328Z,45.65
2018-09-06T19:29:30.662Z,44.58
2018-09-06T19:31:59.148Z,47.13
2018-09-06T19:34:27.330Z,49.10
2018-09-06T19:36:55.612Z,49.83
2018-09-06T19:39:23.939Z,48.35
2018-09-06T19:41:52.338Z,50.83
2018-09-06T19:44:20.636Z,53.83
2018-09-06T19:46:48.979Z,56.95
2018-09-06T19:49:17.296Z,65.28
2018-09-06T19:51:45.622Z,78.10
2018-09-06T19:54:14.078Z,80.00
2018-09-06T19:56:42.376Z,78.35
2018-09-06T19:59:10.710Z,72.22
2018-09-06T20:01:40.277Z,67.87
2018-09-06T20:04:08.664Z,55.80
2018-09-06T20:06:37.018Z,52.87
2018-09-06T20:09:06.693Z,44.70
2018-09-06T20:11:35.064Z,43.38
2018-09-06T20:14:03.404Z,40.65
2018-09-06T20:16:31.716Z,33.42
2018-09-06T20:19:00.090Z,29.82
2018-09-06T20:21:28.438Z,25.48
2018-09-06T20:23:56.758Z,22.20
2018-09-06T20:26:26.243Z,21.40
2018-09-06T20:28:54.580Z,28.60
2018-09-06T20:31:22.905Z,19.53
2018-09-06T20:33:51.376Z,18.48
2018-09-06T20:36:19.593Z,19.77
2018-09-06T20:38:48.028Z,19.35
2018-09-06T20:41:16.375Z,25.80
2018-09-06T20:43:44.743Z,22.50
2018-09-06T20:46:13.025Z,26.73
2018-09-06T20:48:41.395Z,20.30
2018-09-06T20:51:09.751Z,17.82
2018-09-06T20:53:38.060Z,18.45
2018-09-06T20:56:06.333Z,17.67
2018-09-06T20:58:34.864Z,16.65
2018-09-06T21:01:03.236Z,17.00
2018-09-06T21:03:31.575Z,17.00
2018-09-06T21:05:59.849Z,16.60
2018-09-06T21:08:28.178Z,15.83
2018-09-06T21:10:56.447Z,17.33
2018-09-06T21:13:24.742Z,19.27
2018-09-06T21:15:53.017Z,18.47
2018-09-06T21:18:21.320Z,20.47
2018-09-06T21:20:49.870Z,18.90
2018-09-06T21:23:18.214Z,18.00
2018-09-06T21:25:46.545Z,18.00
2018-09-06T21:28:14.876Z,17.30
2018-09-06T21:30:43.290Z,17.60
2018-09-06T21:33:11.620Z,15.58
2018-09-06T21:35:39.934Z,14.80
2018-09-06T21:38:08.308Z,17.48
2018-09-06T21:40:36.634Z,14.03
2018-09-06T21:43:05.053Z,15.50
2018-09-06T21:45:33.366Z,14.30
2018-09-06T21:48:01.732Z,13.88
2018-09-06T21:50:30.071Z,13.48
2018-09-06T21:52:58.381Z,14.00
2018-09-06T21:55:26.709Z,12.60
2018-09-06T21:57:54.991Z,13.63
2018-09-06T22:00:23.342Z,14.23
2018-09-06T22:02:56.834Z,15.07
2018-09-06T22:05:25.161Z,15.30
2018-09-06T22:07:53.440Z,14.65
2018-09-06T22:10:22.715Z,14.80
2018-09-06T22:12:52.428Z,15.00
2018-09-06T22:15:23.980Z,14.83
2018-09-06T22:17:52.301Z,15.40
2018-09-06T22:20:20.628Z,16.20
2018-09-06T22:22:48.935Z,15.37
2018-09-06T22:25:17.297Z,16.80
2018-09-06T22:27:45.616Z,15.60
2018-09-06T22:30:14.037Z,16.60
2018-09-06T22:32:42.347Z,16.05
2018-09-06T22:35:10.624Z,16.75
2018-09-06T22:37:38.937Z,16.55
2018-09-06T22:40:07.284Z,18.27
2018-09-06T22:42:35.832Z,18.20
2018-09-06T22:45:05.594Z,19.40
2018-09-06T22:47:33.905Z,20.23
2018-09-06T22:50:02.300Z,19.57
2018-09-06T22:52:30.594Z,21.33
2018-09-06T22:54:58.936Z,23.47
2018-09-06T22:57:27.321Z,52.70
2018-09-06T22:59:55.665Z,85.92
2018-09-06T23:02:27.716Z,93.20
2018-09-06T23:04:56.037Z,62.05
2018-09-06T23:07:24.347Z,42.55
2018-09-06T23:09:52.718Z,34.67
2018-09-06T23:12:20.995Z,28.90
2018-09-06T23:14:49.335Z,24.02
2018-09-06T23:17:17.625Z,24.00
2018-09-06T23:19:45.998Z,25.05
2018-09-06T23:22:14.355Z,24.60
2018-09-06T23:24:42.660Z,23.10
2018-09-06T23:27:10.973Z,24.07
2018-09-06T23:29:39.321Z,23.92
2018-09-06T23:32:07.649Z,24.50
2018-09-06T23:34:36.302Z,24.50
2018-09-06T23:37:05.282Z,25.33
2018-09-06T23:39:33.956Z,24.12
2018-09-06T23:42:02.579Z,23.62
2018-09-06T23:44:30.849Z,25.10
2018-09-06T23:46:59.437Z,23.98
2018-09-06T23:49:27.912Z,24.65
2018-09-06T23:51:56.216Z,24.60
2018-09-06T23:54:24.565Z,23.17
2018-09-06T23:56:53.113Z,23.10
2018-09-06T23:59:21.426Z,22.45
